FW1155 Weather Reports


Display with metric or nautical units.
time (UTC)temp
F
wind
direction
speed
MPH
gust
MPH
rain 1hr
in
rain 24hr
in
rain mn
in
humidity
%
barometer
mb
20181219114341 57 0 2.0 4.0 0.00 0.00 0.00 88 1011.1
20181219113838 57 0 3.0 4.0 0.00 0.00 0.00 88 1011.1
20181219113340 57 0 2.0 4.0 0.00 0.00 0.00 88 1011.0
20181219112837 57 0 4.0 7.0 0.00 0.00 0.00 88 1011.0
20181219112338 57 0 5.0 8.0 0.00 0.00 0.00 88 1010.9
20181219111836 57 0 6.0 8.0 0.00 0.00 0.00 88 1010.9
20181219111335 57 0 5.0 7.0 0.00 0.00 0.00 88 1010.9
20181219110834 57 355 5.0 7.0 0.00 0.00 0.00 88 1011.0
20181219110332 57 355 5.0 6.0 0.00 0.00 0.00 88 1011.0
20181219105835 57 355 5.0 6.0 0.00 0.00 0.00 88 1011.0
20181219105332 57 355 5.0 7.0 0.00 0.00 0.00 88 1011.0
20181219104831 57 355 5.0 7.0 0.00 0.00 0.00 88 1011.1
20181219104332 57 5 4.0 6.0 0.00 0.00 0.00 88 1011.1
20181219103830 57 14 4.0 5.0 0.00 0.00 0.00 88 1011.1
20181219103332 57 14 4.0 6.0 0.00 0.00 0.00 88 1011.1
20181219102831 57 21 4.0 6.0 0.00 0.00 0.00 88 1011.0
20181219102331 57 46 3.0 4.0 0.00 0.00 0.00 88 1011.3
20181219101829 57 58 2.0 3.0 0.00 0.00 0.00 88 1011.3
20181219101325 57 58 2.0 3.0 0.00 0.00 0.00 88 1011.2
20181219100819 57 58 3.0 4.0 0.00 0.00 0.00 88 1011.1
20181219100320 57 58 2.0 4.0 0.00 0.00 0.00 88 1011.0
20181219095818 57 58 2.0 3.0 0.00 0.00 0.00 88 1011.2
20181219095316 57 58 2.0 3.0 0.00 0.00 0.00 88 1011.3
20181219094816 57 58 2.0 2.0 0.00 0.00 0.00 88 1011.4
20181219094314 57 58 1.0 2.0 0.00 0.00 0.00 88 1011.4
20181219093813 57 58 0.0 2.0 0.00 0.00 0.00 88 1011.4
20181219093311 57 58 0.0 0.0 0.00 0.00 0.00 88 1011.5
20181219092810 57 58 0.0 2.0 0.00 0.00 0.00 88 1011.5
20181219092315 57 58 2.0 4.0 0.00 0.00 0.00 88 1011.5
20181219091811 57 58 3.0 4.0 0.00 0.00 0.00 88 1011.5
20181219091307 57 58 3.0 5.0 0.00 0.00 0.00 88 1011.3
20181219090807 57 58 4.0 7.0 0.00 0.00 0.00 88 1011.2
20181219090306 57 59 4.0 7.0 0.00 0.00 0.00 88 1011.0
20181219085804 57 57 5.0 7.0 0.00 0.00 0.00 88 1011.0
20181219085301 57 56 5.0 7.0 0.00 0.00 0.00 88 1011.1
20181219084802 57 58 5.0 7.0 0.00 0.00 0.00 88 1011.3
20181219084302 57 67 4.0 7.0 0.00 0.00 0.00 88 1011.4
20181219083756 57 55 4.0 6.0 0.00 0.00 0.00 88 1011.4
20181219083256 57 54 4.0 6.0 0.00 0.00 0.00 88 1011.5
20181219082752 57 63 4.0 5.0 0.00 0.00 0.00 88 1011.6
20181219082251 57 77 4.0 7.0 0.00 0.00 0.00 88 1011.7
20181219081752 57 78 4.0 7.0 0.00 0.00 0.00 88 1011.8
20181219081251 57 78 4.0 7.0 0.00 0.00 0.00 88 1011.8
20181219080752 57 71 4.0 7.0 0.00 0.00 0.00 88 1011.9
20181219080255 57 74 3.0 7.0 0.00 0.00 0.00 88 1012.0
20181219075747 58 70 4.0 7.0 0.00 0.00 0.00 88 1012.1
20181219075246 58 71 4.0 8.0 0.00 0.00 0.00 88 1012.1
20181219074743 58 73 5.0 8.0 0.00 0.00 0.00 88 1012.2
20181219074243 58 79 6.0 8.0 0.00 0.00 0.00 88 1012.2
20181219073744 58 75 7.0 8.0 0.00 0.00 0.00 88 1012.3
20181219073243 58 80 7.0 9.0 0.00 0.00 0.00 88 1012.3
20181219072739 58 76 7.0 9.0 0.00 0.00 0.00 88 1012.3
20181219072238 58 78 6.0 9.0 0.00 0.00 0.00 88 1012.3
20181219071737 58 80 6.0 9.0 0.00 0.00 0.00 88 1012.5
20181219071236 58 80 6.0 9.0 0.00 0.00 0.00 88 1012.5
20181219070736 58 71 6.0 8.0 0.00 0.00 0.00 88 1012.5
20181219070237 58 69 5.0 8.0 0.00 0.00 0.00 88 1012.6
20181219065736 58 80 4.0 8.0 0.00 0.00 0.00 88 1012.7
20181219065236 58 60 5.0 8.0 0.00 0.00 0.00 88 1012.8
20181219064736 58 61 5.0 9.0 0.00 0.00 0.00 88 1012.8
20181219064235 58 65 5.0 10.0 0.00 0.00 0.00 88 1012.8
20181219063731 58 68 8.0 15.0 0.00 0.00 0.00 88 1012.8
20181219063233 58 76 10.0 15.0 0.00 0.00 0.00 88 1012.7
20181219062727 58 76 11.0 15.0 0.00 0.00 0.00 88 1012.6
20181219062231 58 72 11.0 17.0 0.00 0.00 0.00 88 1012.7
20181219061728 58 81 10.0 17.0 0.00 0.00 0.00 88 1012.8
20181219061227 58 80 7.0 13.0 0.00 0.00 0.00 88 1013.0
20181219060725 58 76 7.0 11.0 0.00 0.00 0.00 88 1013.2
20181219060227 58 91 7.0 11.0 0.00 0.00 0.00 88 1013.0
20181219055726 58 81 6.0 9.0 0.00 0.00 0.00 88 1013.2
20181219055232 58 97 6.0 10.0 0.00 0.00 0.00 88 1013.3
20181219054724 58 93 6.0 10.0 0.00 0.00 0.00 88 1013.2
20181219054229 58 96 6.0 10.0 0.00 0.00 0.00 88 1013.5
20181219053724 58 96 5.0 10.0 0.00 0.00 0.00 88 1013.6
20181219053226 58 99 5.0 7.0 0.00 0.00 0.00 88 1013.6
20181219052724 58 97 6.0 9.0 0.00 0.00 0.00 88 1013.8
20181219052224 58 96 6.0 9.0 0.00 0.00 0.00 88 1013.8
20181219051731 58 95 6.0 9.0 0.00 0.00 0.00 88 1013.8
20181219051224 58 100 7.0 11.0 0.00 0.00 0.00 88 1013.8
20181219050724 58 83 8.0 13.0 0.00 0.00 0.00 88 1013.8
20181219050224 58 86 8.0 13.0 0.00 0.00 0.00 88 1013.8
20181219045723 58 86 9.0 13.0 0.00 0.00 0.00 88 1013.8
20181219045225 58 88 9.0 13.0 0.00 0.00 0.00 88 1013.9
20181219044725 58 90 8.0 13.0 0.00 0.00 0.00 88 1014.0
20181219044224 59 90 9.0 13.0 0.00 0.00 0.00 88 1014.0
20181219043724 59 86 10.0 16.0 0.00 0.00 0.00 88 1014.0
20181219043224 59 82 11.0 16.0 0.00 0.00 0.00 88 1013.9
20181219042724 59 92 11.0 16.0 0.00 0.00 0.00 88 1014.1
20181219042223 59 96 10.0 14.0 0.00 0.00 0.00 88 1014.2
20181219041723 59 94 10.0 14.0 0.00 0.00 0.00 87 1014.2
20181219041224 59 98 10.0 14.0 0.00 0.00 0.00 87 1014.2
20181219040725 59 90 10.0 15.0 0.00 0.00 0.00 87 1014.2
20181219040224 59 106 11.0 15.0 0.00 0.00 0.00 87 1014.2
20181219035727 59 96 11.0 16.0 0.00 0.00 0.00 87 1014.1
20181219035227 59 86 10.0 16.0 0.00 0.00 0.00 87 1014.0
20181219034726 59 104 10.0 14.0 0.00 0.00 0.00 87 1014.2
20181219034221 59 96 10.0 15.0 0.00 0.00 0.00 87 1014.2
20181219033728 59 84 11.0 16.0 0.00 0.00 0.00 87 1014.2
20181219033223 59 84 11.0 18.0 0.00 0.00 0.00 87 1014.2
20181219032723 59 98 12.0 18.0 0.00 0.00 0.00 87 1014.1
20181219032229 59 93 10.0 18.0 0.00 0.00 0.00 87 1014.2
20181219031724 59 92 8.0 16.0 0.00 0.00 0.00 87 1014.1
20181219031223 59 88 10.0 16.0 0.00 0.00 0.00 87 1014.2
20181219030722 60 101 11.0 17.0 0.00 0.00 0.00 87 1014.1
20181219030223 60 84 11.0 17.0 0.00 0.00 0.00 87 1014.0
20181219025724 60 98 12.0 16.0 0.00 0.00 0.00 87 1014.0
20181219025223 60 82 13.0 17.0 0.00 0.00 0.00 87 1014.2
20181219024734 60 94 12.0 17.0 0.00 0.00 0.00 87 1014.1
20181219024224 60 87 11.0 17.0 0.00 0.00 0.00 87 1014.3
20181219023728 60 86 10.0 15.0 0.00 0.00 0.00 87 1014.3
20181219023223 60 82 10.0 15.0 0.00 0.00 0.00 87 1014.3
20181219022724 60 81 10.0 15.0 0.00 0.00 0.00 87 1014.3
20181219022224 60 84 9.0 15.0 0.00 0.00 0.00 87 1014.3
20181219021725 60 90 7.0 13.0 0.00 0.00 0.00 87 1014.3
20181219021226 60 85 7.0 10.0 0.00 0.00 0.00 86 1014.3
20181219020734 60 80 7.0 10.0 0.00 0.00 0.00 87 1014.3
20181219020224 61 79 7.0 9.0 0.00 0.00 0.00 86 1014.4
20181219015723 61 76 6.0 9.0 0.00 0.00 0.00 86 1014.4
20181219015223 61 85 4.0 8.0 0.00 0.00 0.00 86 1014.5
20181219014725 61 92 3.0 7.0 0.00 0.00 0.00 86 1014.5
20181219014223 61 92 4.0 8.0 0.00 0.00 0.00 86 1014.5
20181219013724 61 91 5.0 8.0 0.00 0.00 0.00 86 1014.4
20181219013221 61 98 6.0 9.0 0.00 0.00 0.00 86 1014.4
20181219012715 61 88 6.0 9.0 0.00 0.00 0.00 86 1014.2
20181219012219 61 84 6.0 9.0 0.00 0.00 0.00 86 1014.1
20181219011717 61 89 7.0 11.0 0.00 0.00 0.00 86 1014.1
20181219011215 61 90 7.0 11.0 0.00 0.00 0.00 86 1014.0
20181219010715 61 96 6.0 9.0 0.00 0.00 0.00 86 1014.0
20181219010217 61 95 5.0 9.0 0.00 0.00 0.00 86 1014.0
20181219005717 61 110 6.0 10.0 0.00 0.00 0.00 86 1013.9
20181219005215 61 98 6.0 10.0 0.00 0.00 0.00 85 1013.9
20181219004715 62 97 8.0 15.0 0.00 0.00 0.00 85 1013.9
20181219004215 62 96 9.0 16.0 0.00 0.00 0.00 85 1013.9
20181219003716 62 126 9.0 16.0 0.00 0.00 0.00 86 1013.8
20181219003216 62 90 9.0 16.0 0.00 0.00 0.00 86 1013.8
20181219002715 62 107 11.0 17.0 0.00 0.00 0.00 86 1013.9
20181219002215 62 120 11.0 17.0 0.00 0.00 0.00 85 1013.9
20181219001715 62 84 9.0 16.0 0.00 0.00 0.00 85 1013.9
20181219001215 62 94 8.0 14.0 0.00 0.00 0.00 85 1013.7
20181219000716 62 110 8.0 14.0 0.00 0.00 0.00 85 1013.7
20181219000216 62 94 8.0 14.0 0.00 0.00 0.00 85 1013.8
20181218235717 62 92 6.0 11.0 0.00 0.00 0.00 85 1013.7
20181218235219 62 101 6.0 14.0 0.00 0.00 0.00 85 1013.8
20181218234716 63 99 7.0 14.0 0.00 0.00 0.00 85 1013.7
20181218234216 63 97 9.0 15.0 0.00 0.00 0.00 85 1013.8
20181218233715 63 107 9.0 15.0 0.00 0.00 0.00 85 1013.8
20181218233217 63 86 8.0 14.0 0.00 0.00 0.00 85 1013.7
20181218232715 63 104 8.0 14.0 0.00 0.00 0.00 85 1013.6
20181218232214 63 111 7.0 11.0 0.00 0.00 0.00 85 1013.6
20181218231708 63 110 7.0 11.0 0.00 0.00 0.00 85 1013.6
20181218231211 63 91 8.0 15.0 0.00 0.00 0.00 85 1013.5
20181218230707 63 100 9.0 15.0 0.00 0.00 0.00 85 1013.5
20181218230210 63 107 9.0 15.0 0.00 0.00 0.00 85 1013.5
20181218225708 63 94 9.0 15.0 0.00 0.00 0.00 85 1013.6
20181218225209 64 98 8.0 14.0 0.00 0.00 0.00 85 1013.6
20181218224709 64 92 8.0 13.0 0.00 0.00 0.00 85 1013.5
20181218224209 64 101 9.0 14.0 0.00 0.00 0.00 85 1013.5
20181218223707 64 89 10.0 15.0 0.00 0.00 0.00 84 1013.5
20181218223209 64 98 11.0 15.0 0.00 0.00 0.00 84 1013.5
20181218222703 64 88 9.0 15.0 0.00 0.00 0.00 85 1013.5
20181218222206 64 78 7.0 13.0 0.00 0.00 0.00 84 1013.6
20181218221703 64 120 7.0 13.0 0.00 0.00 0.00 84 1013.7
20181218221205 64 100 7.0 13.0 0.00 0.00 0.00 84 1013.7
20181218220705 64 107 7.0 11.0 0.00 0.00 0.00 85 1013.8
20181218220207 64 103 7.0 11.0 0.00 0.00 0.00 85 1013.9
20181218215704 64 125 7.0 11.0 0.00 0.00 0.00 85 1013.9
20181218215206 64 126 7.0 13.0 0.00 0.00 0.00 85 1013.9
20181218214705 64 97 6.0 13.0 0.00 0.00 0.00 85 1013.8
20181218214205 63 110 5.0 10.0 0.00 0.00 0.00 85 1013.7
20181218213705 63 105 5.0 10.0 0.00 0.00 0.00 86 1013.9
20181218213204 63 85 6.0 11.0 0.00 0.00 0.00 86 1013.9
20181218212705 63 65 7.0 11.0 0.00 0.00 0.00 85 1013.8
20181218212205 63 63 8.0 11.0 0.00 0.00 0.00 85 1013.8
20181218211705 63 73 8.0 11.0 0.00 0.00 0.00 85 1013.8
20181218211207 63 69 8.0 11.0 0.00 0.00 0.00 85 1014.0
20181218210703 63 68 8.0 11.0 0.00 0.00 0.00 85 1014.0
20181218210205 63 59 8.0 11.0 0.00 0.00 0.00 85 1014.0
20181218205704 63 59 8.0 11.0 0.00 0.00 0.00 86 1013.8
20181218205206 62 74 9.0 12.0 0.00 0.00 0.00 86 1013.9
20181218204704 62 71 9.0 12.0 0.00 0.00 0.00 86 1014.0
20181218204206 62 67 9.0 11.0 0.00 0.00 0.00 86 1014.0
20181218203705 62 65 9.0 12.0 0.00 0.00 0.00 85 1014.2
20181218203205 62 63 9.0 13.0 0.00 0.00 0.00 85 1014.2
20181218202703 62 63 9.0 13.0 0.00 0.00 0.00 85 1014.2
20181218202209 62 59 8.0 11.0 0.00 0.00 0.00 85 1014.3
20181218201707 62 74 8.0 13.0 0.00 0.00 0.00 85 1014.4
20181218201207 62 90 8.0 13.0 0.00 0.00 0.00 85 1014.5
20181218200706 62 94 8.0 11.0 0.00 0.00 0.00 85 1014.7
20181218200209 62 84 8.0 10.0 0.00 0.00 0.00 85 1014.9
20181218195707 62 65 8.0 10.0 0.00 0.00 0.00 85 1014.9
20181218195206 62 63 8.0 9.0 0.00 0.00 0.00 85 1014.9
20181218194704 62 68 7.0 9.0 0.00 0.00 0.00 85 1015.1
20181218194209 62 61 6.0 9.0 0.00 0.00 0.00 85 1015.3
20181218193710 62 61 6.0 9.0 0.00 0.00 0.00 85 1015.4
20181218193207 62 64 6.0 9.0 0.00 0.00 0.00 85 1015.5
20181218192705 62 66 6.0 9.0 0.00 0.00 0.00 85 1015.6
20181218192205 63 66 6.0 9.0 0.00 0.00 0.00 84 1015.7
20181218191705 63 66 5.0 9.0 0.00 0.00 0.00 85 1015.9
20181218191206 62 66 5.0 9.0 0.00 0.00 0.00 85 1016.0
20181218190705 62 65 5.0 7.0 0.00 0.00 0.00 85 1016.1
20181218190159 62 66 5.0 8.0 0.00 0.00 0.00 85 1016.2
20181218185701 62 66 5.0 8.0 0.00 0.00 0.00 85 1016.2
20181218185201 62 68 5.0 8.0 0.00 0.00 0.00 85 1016.3
20181218184700 62 77 5.0 8.0 0.00 0.00 0.00 85 1016.5
20181218184201 61 56 6.0 8.0 0.00 0.00 0.00 85 1016.7
20181218183700 61 59 6.0 9.0 0.00 0.00 0.00 86 1016.8
20181218183200 61 59 6.0 9.0 0.00 0.00 0.00 86 1016.8
20181218182659 61 67 6.0 9.0 0.00 0.00 0.00 86 1016.8
20181218182200 61 61 7.0 9.0 0.00 0.00 0.00 86 1017.0
20181218181704 60 59 7.0 10.0 0.00 0.00 0.00 86 1017.1
20181218181158 60 67 7.0 10.0 0.00 0.00 0.00 86 1017.2
20181218180659 60 71 7.0 10.0 0.00 0.00 0.00 87 1017.4
20181218180156 60 74 7.0 10.0 0.00 0.00 0.00 87 1017.5
20181218175654 59 57 6.0 9.0 0.00 0.00 0.00 88 1017.6
20181218175202 59 67 7.0 9.0 0.00 0.00 0.00 88 1017.6
20181218174655 59 71 8.0 11.0 0.00 0.00 0.00 88 1017.7
20181218174152 58 67 8.0 11.0 0.00 0.00 0.00 89 1017.8
20181218173651 58 65 8.0 10.0 0.00 0.00 0.00 89 1017.6
20181218173153 58 64 7.0 10.0 0.00 0.00 0.00 89 1017.7
20181218172651 57 68 7.0 10.0 0.00 0.00 0.00 89 1017.9
20181218172152 57 60 6.0 8.0 0.00 0.00 0.00 89 1018.1
20181218171647 57 56 6.0 8.0 0.00 0.00 0.00 89 1018.3
20181218171150 57 67 6.0 8.0 0.00 0.00 0.00 89 1018.4
20181218170648 57 67 6.0 9.0 0.00 0.00 0.00 89 1018.4
20181218170144 56 71 6.0 9.0 0.00 0.00 0.00 89 1018.4
20181218165651 56 72 5.0 9.0 0.00 0.00 0.00 90 1018.6
20181218165144 56 74 7.0 10.0 0.00 0.00 0.00 89 1018.6
20181218164644 56 76 8.0 10.0 0.00 0.00 0.00 90 1018.5
20181218164144 55 74 7.0 10.0 0.00 0.00 0.00 89 1018.7
20181218163643 55 75 6.0 9.0 0.00 0.00 0.00 90 1018.9
20181218163141 55 76 5.0 8.0 0.00 0.00 0.00 90 1018.8
20181218162640 54 72 5.0 8.0 0.00 0.00 0.00 90 1019.1
20181218162139 54 72 5.0 8.0 0.00 0.00 0.00 90 1019.2
20181218161640 53 73 5.0 8.0 0.00 0.00 0.00 90 1019.2
20181218161147 53 76 5.0 8.0 0.00 0.00 0.00 89 1019.2
20181218160640 52 90 4.0 7.0 0.00 0.00 0.00 90 1019.4
20181218160139 52 93 3.0 6.0 0.00 0.00 0.00 89 1019.5
20181218155639 52 93 4.0 7.0 0.00 0.00 0.00 90 1019.7
20181218155143 51 93 5.0 7.0 0.00 0.00 0.00 89 1019.6
20181218154640 51 100 4.0 7.0 0.00 0.00 0.00 90 1019.5
20181218154146 51 103 3.0 6.0 0.00 0.00 0.00 89 1019.6
20181218153639 50 103 3.0 6.0 0.00 0.00 0.00 90 1019.7
20181218153140 50 103 4.0 6.0 0.00 0.00 0.00 90 1019.6
20181218152640 50 103 4.0 6.0 0.00 0.00 0.00 89 1019.6
20181218152140 50 105 3.0 4.0 0.00 0.00 0.00 90 1019.5
20181218151639 49 105 3.0 4.0 0.00 0.00 0.00 89 1019.7
20181218151139 49 105 3.0 5.0 0.00 0.00 0.00 90 1019.7
20181218150647 49 105 3.0 5.0 0.00 0.00 0.00 89 1019.7
20181218150139 48 111 3.0 4.0 0.00 0.00 0.00 90 1019.6
20181218145639 48 111 3.0 4.0 0.00 0.00 0.00 90 1019.5
20181218145140 48 111 3.0 4.0 0.00 0.00 0.00 89 1019.6
20181218144639 47 111 3.0 4.0 0.00 0.00 0.00 90 1019.5
20181218144139 47 111 3.0 4.0 0.00 0.00 0.00 89 1019.2
20181218143639 47 111 3.0 4.0 0.00 0.00 0.00 89 1019.2
20181218143150 47 111 3.0 4.0 0.00 0.00 0.00 89 1019.1
20181218142643 47 111 3.0 4.0 0.00 0.00 0.00 89 1018.9
20181218142141 46 111 2.0 4.0 0.00 0.00 0.00 89 1019.0
20181218141652 46 111 2.0 3.0 0.00 0.00 0.00 89 1019.0
20181218141141 46 111 2.0 3.0 0.00 0.00 0.00 89 1018.8
20181218140636 46 111 2.0 3.0 0.00 0.00 0.00 89 1018.8
20181218140138 46 111 1.0 3.0 0.00 0.00 0.00 89 1018.8
20181218135637 46 111 1.0 3.0 0.00 0.00 0.00 89 1018.8
20181218135138 45 111 2.0 3.0 0.00 0.00 0.00 89 1018.7
20181218134633 45 111 2.0 3.0 0.00 0.00 0.00 89 1018.7
20181218134133 45 111 3.0 4.0 0.00 0.00 0.00 89 1018.7
20181218133637 45 111 3.0 6.0 0.00 0.00 0.00 89 1018.5
20181218133125 45 111 4.0 7.0 0.00 0.00 0.00 89 1018.4
20181218132623 45 96 5.0 7.0 0.00 0.00 0.00 89 1018.3
20181218132118 45 96 5.0 8.0 0.00 0.00 0.00 89 1018.1
20181218131617 45 98 4.0 8.0 0.00 0.00 0.00 89 1018.2
20181218131117 45 100 3.0 5.0 0.00 0.00 0.00 89 1018.3
20181218130618 45 100 2.0 3.0 0.00 0.00 0.00 89 1018.3
20181218130117 45 100 1.0 3.0 0.00 0.00 0.00 89 1018.4
20181218125613 45 100 1.0 2.0 0.00 0.00 0.00 89 1018.5
20181218125122 45 100 1.0 2.0 0.00 0.00 0.00 89 1018.6
20181218124612 45 100 1.0 2.0 0.00 0.00 0.00 89 1018.7
20181218124113 45 100 1.0 2.0 0.00 0.00 0.00 89 1018.7
20181218123614 45 100 1.0 2.0 0.00 0.00 0.00 89 1018.6
20181218123109 45 100 1.0 2.0 0.00 0.00 0.00 89 1018.5
20181218122606 45 100 2.0 2.0 0.00 0.00 0.00 89 1018.5
20181218122106 45 100 2.0 6.0 0.00 0.00 0.00 89 1018.4
20181218121606 45 100 2.0 6.0 0.00 0.00 0.00 89 1018.4
20181218121105 45 100 3.0 6.0 0.00 0.00 0.00 89 1018.4
20181218120605 45 100 3.0 6.0 0.00 0.00 0.00 89 1018.2
20181218120104 45 100 3.0 5.0 0.00 0.00 0.00 89 1018.2
20181218115603 45 100 3.0 6.0 0.00 0.00 0.00 89 1018.1
20181218115109 45 100 3.0 6.0 0.00 0.00 0.00 89 1018.1
20181218114603 45 100 3.0 6.0 0.00 0.00 0.00 89 1018.2